sensor_id;sensor_type;location;lat;lon;timestamp;temperature;humidity
736;DHT22;352;48.626;9.238;2023-02-04T00:00:10;8.70;99.90
736;DHT22;352;48.626;9.238;2023-02-04T00:02:38;8.70;99.90
736;DHT22;352;48.626;9.238;2023-02-04T00:05:05;8.70;99.90
736;DHT22;352;48.626;9.238;2023-02-04T00:07:32;8.70;99.90
736;DHT22;352;48.626;9.238;2023-02-04T00:09:59;8.70;99.90
736;DHT22;352;48.626;9.238;2023-02-04T00:12:27;8.80;99.90
736;DHT22;352;48.626;9.238;2023-02-04T00:14:53;8.80;99.90
736;DHT22;352;48.626;9.238;2023-02-04T00:17:20;8.80;99.90
736;DHT22;352;48.626;9.238;2023-02-04T00:19:47;8.80;99.90
736;DHT22;352;48.626;9.238;2023-02-04T00:22:15;8.80;99.90
736;DHT22;352;48.626;9.238;2023-02-04T00:24:41;8.80;99.90
736;DHT22;352;48.626;9.238;2023-02-04T00:27:13;8.80;99.90
736;DHT22;352;48.626;9.238;2023-02-04T00:29:41;8.80;99.90
736;DHT22;352;48.626;9.238;2023-02-04T00:32:07;8.80;99.90
736;DHT22;352;48.626;9.238;2023-02-04T00:34:34;8.80;99.90
736;DHT22;352;48.626;9.238;2023-02-04T00:37:01;8.80;99.90
736;DHT22;352;48.626;9.238;2023-02-04T00:39:27;8.80;99.90
736;DHT22;352;48.626;9.238;2023-02-04T00:41:54;8.80;99.90
736;DHT22;352;48.626;9.238;2023-02-04T00:44:21;8.80;99.90
736;DHT22;352;48.626;9.238;2023-02-04T00:46:49;8.80;99.90
736;DHT22;352;48.626;9.238;2023-02-04T00:49:16;8.80;99.90
736;DHT22;352;48.626;9.238;2023-02-04T00:51:42;8.80;99.90
736;DHT22;352;48.626;9.238;2023-02-04T00:54:11;8.80;99.90
736;DHT22;352;48.626;9.238;2023-02-04T00:56:38;8.80;99.90
736;DHT22;352;48.626;9.238;2023-02-04T00:59:05;8.80;99.90
736;DHT22;352;48.626;9.238;2023-02-04T01:01:33;8.90;99.90
736;DHT22;352;48.626;9.238;2023-02-04T01:04:01;8.90;99.90
736;DHT22;352;48.626;9.238;2023-02-04T01:08:55;8.90;99.90
736;DHT22;352;48.626;9.238;2023-02-04T01:11:22;9.00;99.90
736;DHT22;352;48.626;9.238;2023-02-04T01:13:49;9.00;99.90
736;DHT22;352;48.626;9.238;2023-02-04T01:16:15;9.00;99.90
736;DHT22;352;48.626;9.238;2023-02-04T01:18:42;9.00;99.90
736;DHT22;352;48.626;9.238;2023-02-04T01:21:10;9.00;99.90
736;DHT22;352;48.626;9.238;2023-02-04T01:23:37;9.00;99.90
736;DHT22;352;48.626;9.238;2023-02-04T01:26:04;8.80;99.90
736;DHT22;352;48.626;9.238;2023-02-04T01:28:31;9.10;99.90
736;DHT22;352;48.626;9.238;2023-02-04T01:30:57;9.10;99.90
736;DHT22;352;48.626;9.238;2023-02-04T01:33:24;9.00;99.90
736;DHT22;352;48.626;9.238;2023-02-04T01:35:51;9.10;99.90
736;DHT22;352;48.626;9.238;2023-02-04T01:38:19;9.10;99.90
736;DHT22;352;48.626;9.238;2023-02-04T01:40:46;9.10;99.90
736;DHT22;352;48.626;9.238;2023-02-04T01:43:13;9.10;99.90
736;DHT22;352;48.626;9.238;2023-02-04T01:45:42;9.10;99.90
736;DHT22;352;48.626;9.238;2023-02-04T01:48:08;9.10;99.90
736;DHT22;352;48.626;9.238;2023-02-04T01:50:37;9.00;99.90
736;DHT22;352;48.626;9.238;2023-02-04T01:53:04;9.10;99.90
736;DHT22;352;48.626;9.238;2023-02-04T01:55:32;9.00;99.90
736;DHT22;352;48.626;9.238;2023-02-04T01:57:59;9.10;99.90
736;DHT22;352;48.626;9.238;2023-02-04T02:00:28;9.00;99.90
736;DHT22;352;48.626;9.238;2023-02-04T02:02:56;8.90;99.90
736;DHT22;352;48.626;9.238;2023-02-04T02:05:24;8.90;99.90
736;DHT22;352;48.626;9.238;2023-02-04T02:07:54;8.90;99.90
736;DHT22;352;48.626;9.238;2023-02-04T02:10:21;8.80;99.90
736;DHT22;352;48.626;9.238;2023-02-04T02:12:50;8.80;99.90
736;DHT22;352;48.626;9.238;2023-02-04T02:15:19;8.80;99.90
736;DHT22;352;48.626;9.238;2023-02-04T02:17:45;8.80;99.90
736;DHT22;352;48.626;9.238;2023-02-04T02:20:15;8.70;99.90
736;DHT22;352;48.626;9.238;2023-02-04T02:22:51;8.70;99.90
736;DHT22;352;48.626;9.238;2023-02-04T02:25:22;8.70;99.90
736;DHT22;352;48.626;9.238;2023-02-04T02:27:49;8.60;99.90
736;DHT22;352;48.626;9.238;2023-02-04T02:30:16;8.60;99.90
736;DHT22;352;48.626;9.238;2023-02-04T02:32:44;8.50;99.90
736;DHT22;352;48.626;9.238;2023-02-04T02:35:13;8.50;99.90
736;DHT22;352;48.626;9.238;2023-02-04T02:37:40;8.40;99.90
736;DHT22;352;48.626;9.238;2023-02-04T02:40:08;8.40;99.90
736;DHT22;352;48.626;9.238;2023-02-04T02:42:36;8.40;99.90
736;DHT22;352;48.626;9.238;2023-02-04T02:45:07;8.40;99.90
736;DHT22;352;48.626;9.238;2023-02-04T02:47:36;8.30;99.90
736;DHT22;352;48.626;9.238;2023-02-04T02:50:04;8.30;99.90
736;DHT22;352;48.626;9.238;2023-02-04T02:52:30;8.30;99.90
736;DHT22;352;48.626;9.238;2023-02-04T02:54:57;8.30;99.90
736;DHT22;352;48.626;9.238;2023-02-04T02:57:24;8.20;99.90
736;DHT22;352;48.626;9.238;2023-02-04T02:59:52;8.20;99.90
736;DHT22;352;48.626;9.238;2023-02-04T03:02:21;8.20;99.90
736;DHT22;352;48.626;9.238;2023-02-04T03:04:51;8.30;99.90
736;DHT22;352;48.626;9.238;2023-02-04T03:07:20;8.20;99.90
736;DHT22;352;48.626;9.238;2023-02-04T03:09:48;8.20;99.90
736;DHT22;352;48.626;9.238;2023-02-04T03:12:16;8.20;99.90
736;DHT22;352;48.626;9.238;2023-02-04T03:14:43;8.20;99.90
736;DHT22;352;48.626;9.238;2023-02-04T03:17:12;8.10;99.90
736;DHT22;352;48.626;9.238;2023-02-04T03:19:38;8.10;99.90
736;DHT22;352;48.626;9.238;2023-02-04T03:22:06;8.10;99.90
736;DHT22;352;48.626;9.238;2023-02-04T03:24:33;8.10;99.90
736;DHT22;352;48.626;9.238;2023-02-04T03:27:00;8.10;99.90
736;DHT22;352;48.626;9.238;2023-02-04T03:29:27;8.10;99.90
736;DHT22;352;48.626;9.238;2023-02-04T03:31:54;8.10;99.90
736;DHT22;352;48.626;9.238;2023-02-04T03:34:22;8.20;99.90
736;DHT22;352;48.626;9.238;2023-02-04T03:36:49;8.20;99.90
736;DHT22;352;48.626;9.238;2023-02-04T03:39:16;8.20;99.90
736;DHT22;352;48.626;9.238;2023-02-04T03:41:42;8.10;99.90
736;DHT22;352;48.626;9.238;2023-02-04T03:44:10;8.00;99.90
736;DHT22;352;48.626;9.238;2023-02-04T03:46:36;8.00;99.90
736;DHT22;352;48.626;9.238;2023-02-04T03:49:03;8.10;99.90
736;DHT22;352;48.626;9.238;2023-02-04T03:51:31;8.10;99.90
736;DHT22;352;48.626;9.238;2023-02-04T03:53:58;7.90;99.90
736;DHT22;352;48.626;9.238;2023-02-04T03:56:24;8.00;99.90
736;DHT22;352;48.626;9.238;2023-02-04T03:58:51;7.90;99.90
736;DHT22;352;48.626;9.238;2023-02-04T04:01:18;8.00;99.90
736;DHT22;352;48.626;9.238;2023-02-04T04:03:44;8.00;99.90
736;DHT22;352;48.626;9.238;2023-02-04T04:06:11;7.90;99.90
736;DHT22;352;48.626;9.238;2023-02-04T04:08:39;8.00;99.90
736;DHT22;352;48.626;9.238;2023-02-04T04:11:06;8.00;99.90
736;DHT22;352;48.626;9.238;2023-02-04T04:13:33;8.00;99.90
736;DHT22;352;48.626;9.238;2023-02-04T04:15:59;8.00;99.90
736;DHT22;352;48.626;9.238;2023-02-04T04:18:27;8.00;99.90
736;DHT22;352;48.626;9.238;2023-02-04T04:20:54;8.10;99.90
736;DHT22;352;48.626;9.238;2023-02-04T04:23:21;8.00;99.90
736;DHT22;352;48.626;9.238;2023-02-04T04:25:49;8.10;99.90
736;DHT22;352;48.626;9.238;2023-02-04T04:28:17;8.10;99.90
736;DHT22;352;48.626;9.238;2023-02-04T04:30:44;8.00;99.90
736;DHT22;352;48.626;9.238;2023-02-04T04:33:10;8.00;99.90
736;DHT22;352;48.626;9.238;2023-02-04T04:35:37;8.10;99.90
736;DHT22;352;48.626;9.238;2023-02-04T04:38:04;8.00;99.90
736;DHT22;352;48.626;9.238;2023-02-04T04:40:30;8.00;99.90
736;DHT22;352;48.626;9.238;2023-02-04T04:42:58;8.00;99.90
736;DHT22;352;48.626;9.238;2023-02-04T04:45:25;8.00;99.90
736;DHT22;352;48.626;9.238;2023-02-04T04:47:52;8.10;99.90
736;DHT22;352;48.626;9.238;2023-02-04T04:50:19;8.10;99.90
736;DHT22;352;48.626;9.238;2023-02-04T04:52:45;8.10;99.90
736;DHT22;352;48.626;9.238;2023-02-04T04:55:13;8.10;99.90
736;DHT22;352;48.626;9.238;2023-02-04T04:57:39;8.10;99.90
736;DHT22;352;48.626;9.238;2023-02-04T05:00:13;8.10;99.90
736;DHT22;352;48.626;9.238;2023-02-04T05:02:41;8.10;99.90
736;DHT22;352;48.626;9.238;2023-02-04T05:05:08;8.10;99.90
736;DHT22;352;48.626;9.238;2023-02-04T05:07:34;8.10;99.90
736;DHT22;352;48.626;9.238;2023-02-04T05:10:01;8.10;99.90
736;DHT22;352;48.626;9.238;2023-02-04T05:12:28;8.10;99.90
736;DHT22;352;48.626;9.238;2023-02-04T05:14:55;8.10;99.90
736;DHT22;352;48.626;9.238;2023-02-04T05:17:23;8.10;99.90
736;DHT22;352;48.626;9.238;2023-02-04T05:19:49;8.10;99.90
736;DHT22;352;48.626;9.238;2023-02-04T05:22:16;8.10;99.90
736;DHT22;352;48.626;9.238;2023-02-04T05:24:43;8.20;99.90
736;DHT22;352;48.626;9.238;2023-02-04T05:27:12;8.10;99.90
736;DHT22;352;48.626;9.238;2023-02-04T05:29:39;8.10;99.90
736;DHT22;352;48.626;9.238;2023-02-04T05:32:06;8.10;99.90
736;DHT22;352;48.626;9.238;2023-02-04T05:34:34;8.10;99.90
736;DHT22;352;48.626;9.238;2023-02-04T05:37:00;8.10;99.90
736;DHT22;352;48.626;9.238;2023-02-04T05:39:27;8.10;99.90
736;DHT22;352;48.626;9.238;2023-02-04T05:41:54;8.10;99.90
736;DHT22;352;48.626;9.238;2023-02-04T05:44:21;8.10;99.90
736;DHT22;352;48.626;9.238;2023-02-04T05:46:47;8.00;99.90
736;DHT22;352;48.626;9.238;2023-02-04T05:49:14;8.00;99.90
736;DHT22;352;48.626;9.238;2023-02-04T05:51:42;8.00;99.90
736;DHT22;352;48.626;9.238;2023-02-04T05:54:09;8.00;99.90
736;DHT22;352;48.626;9.238;2023-02-04T05:56:35;8.00;99.90
736;DHT22;352;48.626;9.238;2023-02-04T05:59:02;8.00;99.90
736;DHT22;352;48.626;9.238;2023-02-04T06:01:29;8.00;99.90
736;DHT22;352;48.626;9.238;2023-02-04T06:03:58;8.00;99.90
736;DHT22;352;48.626;9.238;2023-02-04T06:06:25;7.90;99.90
736;DHT22;352;48.626;9.238;2023-02-04T06:08:53;7.90;99.90
736;DHT22;352;48.626;9.238;2023-02-04T06:11:20;7.90;99.90
736;DHT22;352;48.626;9.238;2023-02-04T06:13:46;7.90;99.90
736;DHT22;352;48.626;9.238;2023-02-04T06:16:13;7.90;99.90
736;DHT22;352;48.626;9.238;2023-02-04T06:18:40;7.90;99.90
736;DHT22;352;48.626;9.238;2023-02-04T06:21:06;7.90;99.90
736;DHT22;352;48.626;9.238;2023-02-04T06:23:33;7.80;99.90
736;DHT22;352;48.626;9.238;2023-02-04T06:26:01;7.80;99.90
736;DHT22;352;48.626;9.238;2023-02-04T06:28:28;7.80;99.90
736;DHT22;352;48.626;9.238;2023-02-04T06:30:55;7.80;99.90
736;DHT22;352;48.626;9.238;2023-02-04T06:33:21;7.70;99.90
736;DHT22;352;48.626;9.238;2023-02-04T06:35:48;7.70;99.90
736;DHT22;352;48.626;9.238;2023-02-04T06:38:15;7.80;99.90
736;DHT22;352;48.626;9.238;2023-02-04T06:40:42;7.70;99.90
736;DHT22;352;48.626;9.238;2023-02-04T06:43:10;7.70;99.90
736;DHT22;352;48.626;9.238;2023-02-04T06:45:37;7.70;99.90
736;DHT22;352;48.626;9.238;2023-02-04T06:48:04;7.70;99.90
736;DHT22;352;48.626;9.238;2023-02-04T06:50:31;7.70;99.90
736;DHT22;352;48.626;9.238;2023-02-04T06:52:57;7.70;99.90
736;DHT22;352;48.626;9.238;2023-02-04T06:55:24;7.70;99.90
736;DHT22;352;48.626;9.238;2023-02-04T06:57:51;7.70;99.90
736;DHT22;352;48.626;9.238;2023-02-04T07:00:20;7.70;99.90
736;DHT22;352;48.626;9.238;2023-02-04T07:02:46;7.70;99.90
736;DHT22;352;48.626;9.238;2023-02-04T07:05:13;7.70;99.90
736;DHT22;352;48.626;9.238;2023-02-04T07:07:40;7.70;99.90
736;DHT22;352;48.626;9.238;2023-02-04T07:10:07;7.70;99.90
736;DHT22;352;48.626;9.238;2023-02-04T07:12:34;7.70;99.90
736;DHT22;352;48.626;9.238;2023-02-04T07:15:01;7.70;99.90
736;DHT22;352;48.626;9.238;2023-02-04T07:17:29;7.80;99.90
736;DHT22;352;48.626;9.238;2023-02-04T07:19:56;7.70;99.90
736;DHT22;352;48.626;9.238;2023-02-04T07:22:22;7.70;99.90
736;DHT22;352;48.626;9.238;2023-02-04T07:24:49;7.70;99.90
736;DHT22;352;48.626;9.238;2023-02-04T07:27:16;7.80;99.90
736;DHT22;352;48.626;9.238;2023-02-04T07:29:42;7.80;99.90
736;DHT22;352;48.626;9.238;2023-02-04T07:32:09;7.80;99.90
736;DHT22;352;48.626;9.238;2023-02-04T07:34:37;7.80;99.90
736;DHT22;352;48.626;9.238;2023-02-04T07:37:04;7.80;99.90
736;DHT22;352;48.626;9.238;2023-02-04T07:39:31;7.80;99.90
736;DHT22;352;48.626;9.238;2023-02-04T07:41:58;7.90;99.90
736;DHT22;352;48.626;9.238;2023-02-04T07:44:26;7.90;99.90
736;DHT22;352;48.626;9.238;2023-02-04T07:46:53;7.90;99.90
736;DHT22;352;48.626;9.238;2023-02-04T07:49:21;7.90;99.90
736;DHT22;352;48.626;9.238;2023-02-04T07:51:49;8.00;99.90
736;DHT22;352;48.626;9.238;2023-02-04T07:54:16;8.00;99.90
736;DHT22;352;48.626;9.238;2023-02-04T07:56:42;8.10;99.90
736;DHT22;352;48.626;9.238;2023-02-04T07:59:09;8.10;99.90
736;DHT22;352;48.626;9.238;2023-02-04T08:01:36;8.10;99.90
736;DHT22;352;48.626;9.238;2023-02-04T08:04:03;8.10;99.90
736;DHT22;352;48.626;9.238;2023-02-04T08:06:29;8.10;99.90
736;DHT22;352;48.626;9.238;2023-02-04T08:08:57;8.20;99.90
736;DHT22;352;48.626;9.238;2023-02-04T08:11:24;8.10;99.90
736;DHT22;352;48.626;9.238;2023-02-04T08:13:51;8.20;99.90
736;DHT22;352;48.626;9.238;2023-02-04T08:16:18;8.20;99.90
736;DHT22;352;48.626;9.238;2023-02-04T08:18:45;8.20;99.90
736;DHT22;352;48.626;9.238;2023-02-04T08:21:11;8.30;99.90
736;DHT22;352;48.626;9.238;2023-02-04T08:23:38;8.30;99.90
736;DHT22;352;48.626;9.238;2023-02-04T08:26:08;8.80;99.90
736;DHT22;352;48.626;9.238;2023-02-04T08:28:35;8.50;99.90
736;DHT22;352;48.626;9.238;2023-02-04T08:31:02;8.60;99.90
736;DHT22;352;48.626;9.238;2023-02-04T08:33:29;8.60;99.90
736;DHT22;352;48.626;9.238;2023-02-04T08:35:56;8.80;99.90
736;DHT22;352;48.626;9.238;2023-02-04T08:38:23;8.80;99.90
736;DHT22;352;48.626;9.238;2023-02-04T08:40:50;8.90;99.90
736;DHT22;352;48.626;9.238;2023-02-04T08:43:18;8.90;99.90
736;DHT22;352;48.626;9.238;2023-02-04T08:45:44;8.90;99.90
736;DHT22;352;48.626;9.238;2023-02-04T08:48:11;8.90;99.90
736;DHT22;352;48.626;9.238;2023-02-04T08:50:38;8.80;99.90
736;DHT22;352;48.626;9.238;2023-02-04T08:53:05;8.90;99.90
736;DHT22;352;48.626;9.238;2023-02-04T08:55:31;8.80;99.90
736;DHT22;352;48.626;9.238;2023-02-04T08:57:58;8.80;99.90
736;DHT22;352;48.626;9.238;2023-02-04T09:00:27;8.80;99.90
736;DHT22;352;48.626;9.238;2023-02-04T09:02:54;8.80;99.90
736;DHT22;352;48.626;9.238;2023-02-04T09:05:21;8.80;99.90
736;DHT22;352;48.626;9.238;2023-02-04T09:07:48;8.80;99.90
736;DHT22;352;48.626;9.238;2023-02-04T09:10:15;8.80;99.90
736;DHT22;352;48.626;9.238;2023-02-04T09:12:42;8.90;99.90
736;DHT22;352;48.626;9.238;2023-02-04T09:15:09;8.90;99.90
736;DHT22;352;48.626;9.238;2023-02-04T09:17:38;9.00;99.90
736;DHT22;352;48.626;9.238;2023-02-04T09:20:05;9.00;99.90
736;DHT22;352;48.626;9.238;2023-02-04T09:22:32;9.00;99.90
736;DHT22;352;48.626;9.238;2023-02-04T09:25:01;9.10;99.90
736;DHT22;352;48.626;9.238;2023-02-04T09:27:27;9.10;99.90
736;DHT22;352;48.626;9.238;2023-02-04T09:29:54;9.20;99.90
736;DHT22;352;48.626;9.238;2023-02-04T09:32:21;9.30;99.90
736;DHT22;352;48.626;9.238;2023-02-04T09:34:49;9.40;99.90
736;DHT22;352;48.626;9.238;2023-02-04T09:37:16;9.50;99.90
736;DHT22;352;48.626;9.238;2023-02-04T09:39:43;9.60;99.90
736;DHT22;352;48.626;9.238;2023-02-04T09:42:12;9.70;99.90
736;DHT22;352;48.626;9.238;2023-02-04T09:44:39;9.70;99.90
736;DHT22;352;48.626;9.238;2023-02-04T09:47:10;9.70;99.90
736;DHT22;352;48.626;9.238;2023-02-04T09:49:37;9.60;99.90
736;DHT22;352;48.626;9.238;2023-02-04T09:52:10;9.70;99.90
736;DHT22;352;48.626;9.238;2023-02-04T09:54:37;10.00;99.90
736;DHT22;352;48.626;9.238;2023-02-04T09:57:09;9.70;99.90
736;DHT22;352;48.626;9.238;2023-02-04T09:59:39;9.80;99.90
736;DHT22;352;48.626;9.238;2023-02-04T10:02:19;10.00;99.90
736;DHT22;352;48.626;9.238;2023-02-04T10:04:47;10.10;99.90
736;DHT22;352;48.626;9.238;2023-02-04T10:07:17;10.10;99.90
736;DHT22;352;48.626;9.238;2023-02-04T10:09:47;10.20;99.90
736;DHT22;352;48.626;9.238;2023-02-04T10:12:14;10.30;99.90
736;DHT22;352;48.626;9.238;2023-02-04T10:14:41;10.50;99.90
736;DHT22;352;48.626;9.238;2023-02-04T10:17:09;10.50;99.90
736;DHT22;352;48.626;9.238;2023-02-04T10:19:37;10.60;99.90
736;DHT22;352;48.626;9.238;2023-02-04T10:22:12;10.60;99.90
736;DHT22;352;48.626;9.238;2023-02-04T10:24:42;10.70;99.90
736;DHT22;352;48.626;9.238;2023-02-04T10:27:11;10.80;99.90
736;DHT22;352;48.626;9.238;2023-02-04T10:29:40;10.80;99.90
736;DHT22;352;48.626;9.238;2023-02-04T10:32:25;10.80;99.90
736;DHT22;352;48.626;9.238;2023-02-04T10:34:56;10.60;99.90
736;DHT22;352;48.626;9.238;2023-02-04T10:37:23;10.50;99.90
736;DHT22;352;48.626;9.238;2023-02-04T10:39:51;10.40;99.90
736;DHT22;352;48.626;9.238;2023-02-04T10:42:21;10.50;99.90
736;DHT22;352;48.626;9.238;2023-02-04T10:44:48;10.60;99.90
736;DHT22;352;48.626;9.238;2023-02-04T10:47:18;10.50;99.90
736;DHT22;352;48.626;9.238;2023-02-04T10:49:53;10.50;99.90
736;DHT22;352;48.626;9.238;2023-02-04T10:52:23;10.60;99.90
736;DHT22;352;48.626;9.238;2023-02-04T10:54:53;10.70;99.90
736;DHT22;352;48.626;9.238;2023-02-04T10:57:22;10.80;99.90
736;DHT22;352;48.626;9.238;2023-02-04T10:59:51;11.00;99.90
736;DHT22;352;48.626;9.238;2023-02-04T11:02:47;11.20;99.90
736;DHT22;352;48.626;9.238;2023-02-04T11:05:17;11.20;99.90
736;DHT22;352;48.626;9.238;2023-02-04T11:07:44;11.10;99.90
736;DHT22;352;48.626;9.238;2023-02-04T11:10:15;11.00;99.90
736;DHT22;352;48.626;9.238;2023-02-04T11:12:43;10.70;99.90
736;DHT22;352;48.626;9.238;2023-02-04T11:15:37;10.50;99.90
736;DHT22;352;48.626;9.238;2023-02-04T11:18:06;10.30;99.90
736;DHT22;352;48.626;9.238;2023-02-04T11:20:34;10.30;99.90
736;DHT22;352;48.626;9.238;2023-02-04T11:23:30;10.30;99.90
736;DHT22;352;48.626;9.238;2023-02-04T11:26:07;10.90;99.90
736;DHT22;352;48.626;9.238;2023-02-04T11:28:43;11.00;99.90
736;DHT22;352;48.626;9.238;2023-02-04T11:31:28;11.10;99.90
736;DHT22;352;48.626;9.238;2023-02-04T11:34:08;11.30;99.90
736;DHT22;352;48.626;9.238;2023-02-04T11:36:47;11.30;99.90
736;DHT22;352;48.626;9.238;2023-02-04T11:39:15;11.20;99.90
736;DHT22;352;48.626;9.238;2023-02-04T11:41:45;11.20;99.90
736;DHT22;352;48.626;9.238;2023-02-04T11:44:13;11.00;99.90
736;DHT22;352;48.626;9.238;2023-02-04T11:46:41;10.80;99.90
736;DHT22;352;48.626;9.238;2023-02-04T11:49:13;10.80;99.90
736;DHT22;352;48.626;9.238;2023-02-04T11:51:42;10.90;99.90
736;DHT22;352;48.626;9.238;2023-02-04T11:56:37;10.90;99.90
736;DHT22;352;48.626;9.238;2023-02-04T11:59:08;10.90;99.90
736;DHT22;352;48.626;9.238;2023-02-04T12:01:36;10.80;99.90
736;DHT22;352;48.626;9.238;2023-02-04T12:04:04;10.70;99.90
736;DHT22;352;48.626;9.238;2023-02-04T12:06:33;10.70;99.90
736;DHT22;352;48.626;9.238;2023-02-04T12:09:04;10.70;99.90
736;DHT22;352;48.626;9.238;2023-02-04T12:11:31;10.80;99.90
736;DHT22;352;48.626;9.238;2023-02-04T12:14:07;10.80;99.90
736;DHT22;352;48.626;9.238;2023-02-04T12:16:40;10.80;99.90
736;DHT22;352;48.626;9.238;2023-02-04T12:19:07;10.70;99.90
736;DHT22;352;48.626;9.238;2023-02-04T12:21:33;10.60;99.90
736;DHT22;352;48.626;9.238;2023-02-04T12:24:00;10.60;99.90
736;DHT22;352;48.626;9.238;2023-02-04T12:26:27;10.70;99.90
736;DHT22;352;48.626;9.238;2023-02-04T12:28:53;10.80;99.90
736;DHT22;352;48.626;9.238;2023-02-04T12:31:22;10.90;99.90
736;DHT22;352;48.626;9.238;2023-02-04T12:33:48;11.10;99.90
736;DHT22;352;48.626;9.238;2023-02-04T12:36:15;11.10;99.90
736;DHT22;352;48.626;9.238;2023-02-04T12:38:42;11.10;99.90
736;DHT22;352;48.626;9.238;2023-02-04T12:41:09;11.00;99.90
736;DHT22;352;48.626;9.238;2023-02-04T12:43:35;10.80;99.90
736;DHT22;352;48.626;9.238;2023-02-04T12:46:02;10.60;99.90
736;DHT22;352;48.626;9.238;2023-02-04T12:48:30;10.40;99.90
736;DHT22;352;48.626;9.238;2023-02-04T12:50:57;10.30;99.90
736;DHT22;352;48.626;9.238;2023-02-04T12:53:24;10.10;99.90
736;DHT22;352;48.626;9.238;2023-02-04T12:55:51;10.00;99.90
736;DHT22;352;48.626;9.238;2023-02-04T12:58:17;9.80;99.90
736;DHT22;352;48.626;9.238;2023-02-04T13:00:44;9.70;99.90
736;DHT22;352;48.626;9.238;2023-02-04T13:05:39;9.50;99.90
736;DHT22;352;48.626;9.238;2023-02-04T13:08:06;9.50;99.90
736;DHT22;352;48.626;9.238;2023-02-04T13:10:33;9.30;99.90
736;DHT22;352;48.626;9.238;2023-02-04T13:12:59;9.30;99.90
736;DHT22;352;48.626;9.238;2023-02-04T13:15:26;9.30;99.90
736;DHT22;352;48.626;9.238;2023-02-04T13:17:53;9.30;99.90
736;DHT22;352;48.626;9.238;2023-02-04T13:20:20;9.40;99.90
736;DHT22;352;48.626;9.238;2023-02-04T13:22:48;9.50;99.90
736;DHT22;352;48.626;9.238;2023-02-04T13:25:15;9.60;99.90
736;DHT22;352;48.626;9.238;2023-02-04T13:27:41;9.80;99.90
736;DHT22;352;48.626;9.238;2023-02-04T13:30:12;9.90;99.90
736;DHT22;352;48.626;9.238;2023-02-04T13:32:39;10.00;99.90
736;DHT22;352;48.626;9.238;2023-02-04T13:35:07;10.20;99.90
736;DHT22;352;48.626;9.238;2023-02-04T13:37:34;10.30;99.90
736;DHT22;352;48.626;9.238;2023-02-04T13:40:04;10.40;99.90
736;DHT22;352;48.626;9.238;2023-02-04T13:42:32;10.50;99.90
736;DHT22;352;48.626;9.238;2023-02-04T13:44:59;10.40;99.90
736;DHT22;352;48.626;9.238;2023-02-04T13:47:25;10.40;99.90
736;DHT22;352;48.626;9.238;2023-02-04T13:49:52;10.40;99.90
736;DHT22;352;48.626;9.238;2023-02-04T13:52:19;10.40;99.90
736;DHT22;352;48.626;9.238;2023-02-04T13:54:46;10.50;99.90
736;DHT22;352;48.626;9.238;2023-02-04T13:57:14;10.60;99.90
736;DHT22;352;48.626;9.238;2023-02-04T13:59:41;10.60;99.90
736;DHT22;352;48.626;9.238;2023-02-04T14:02:15;10.60;99.90
736;DHT22;352;48.626;9.238;2023-02-04T14:04:42;10.50;99.90
736;DHT22;352;48.626;9.238;2023-02-04T14:07:09;10.30;99.90
736;DHT22;352;48.626;9.238;2023-02-04T14:09:36;10.20;99.90
736;DHT22;352;48.626;9.238;2023-02-04T14:12:02;10.20;99.90
736;DHT22;352;48.626;9.238;2023-02-04T14:14:31;10.10;99.90
736;DHT22;352;48.626;9.238;2023-02-04T14:16:57;9.90;99.90
736;DHT22;352;48.626;9.238;2023-02-04T14:19:24;9.80;99.90
736;DHT22;352;48.626;9.238;2023-02-04T14:21:52;9.70;99.90
736;DHT22;352;48.626;9.238;2023-02-04T14:24:18;9.60;99.90
736;DHT22;352;48.626;9.238;2023-02-04T14:26:46;9.60;99.90
736;DHT22;352;48.626;9.238;2023-02-04T14:29:12;9.60;99.90
736;DHT22;352;48.626;9.238;2023-02-04T14:31:41;9.60;99.90
736;DHT22;352;48.626;9.238;2023-02-04T14:34:07;9.60;99.90
736;DHT22;352;48.626;9.238;2023-02-04T14:36:34;9.60;99.90
736;DHT22;352;48.626;9.238;2023-02-04T14:39:01;9.60;99.90
736;DHT22;352;48.626;9.238;2023-02-04T14:41:27;9.70;99.90
736;DHT22;352;48.626;9.238;2023-02-04T14:43:55;9.60;99.90
736;DHT22;352;48.626;9.238;2023-02-04T14:46:22;9.60;99.90
736;DHT22;352;48.626;9.238;2023-02-04T14:48:50;9.60;99.90
736;DHT22;352;48.626;9.238;2023-02-04T14:51:18;9.40;99.90
736;DHT22;352;48.626;9.238;2023-02-04T14:53:45;9.40;99.90
736;DHT22;352;48.626;9.238;2023-02-04T14:56:12;9.40;99.90
736;DHT22;352;48.626;9.238;2023-02-04T14:58:39;9.30;99.90
736;DHT22;352;48.626;9.238;2023-02-04T15:01:05;9.30;99.90
736;DHT22;352;48.626;9.238;2023-02-04T15:03:32;9.30;99.90
736;DHT22;352;48.626;9.238;2023-02-04T15:06:00;9.30;99.90
736;DHT22;352;48.626;9.238;2023-02-04T15:08:27;9.20;99.90
736;DHT22;352;48.626;9.238;2023-02-04T15:10:54;9.20;99.90
736;DHT22;352;48.626;9.238;2023-02-04T15:13:20;9.10;99.90
736;DHT22;352;48.626;9.238;2023-02-04T15:15:47;9.10;99.90
736;DHT22;352;48.626;9.238;2023-02-04T15:18:14;9.00;99.90
736;DHT22;352;48.626;9.238;2023-02-04T15:20:40;9.00;99.90
736;DHT22;352;48.626;9.238;2023-02-04T15:23:09;9.00;99.90
736;DHT22;352;48.626;9.238;2023-02-04T15:25:37;9.00;99.90
736;DHT22;352;48.626;9.238;2023-02-04T15:28:04;9.00;99.90
736;DHT22;352;48.626;9.238;2023-02-04T15:30:31;8.90;99.90
736;DHT22;352;48.626;9.238;2023-02-04T15:32:58;8.90;99.90
736;DHT22;352;48.626;9.238;2023-02-04T15:35:24;8.90;99.90
736;DHT22;352;48.626;9.238;2023-02-04T15:37:51;8.80;99.90
736;DHT22;352;48.626;9.238;2023-02-04T15:40:19;8.80;99.90
736;DHT22;352;48.626;9.238;2023-02-04T15:42:46;8.70;99.90
736;DHT22;352;48.626;9.238;2023-02-04T15:45:13;8.60;99.90
736;DHT22;352;48.626;9.238;2023-02-04T15:47:40;8.50;99.90
736;DHT22;352;48.626;9.238;2023-02-04T15:50:07;8.40;99.90
736;DHT22;352;48.626;9.238;2023-02-04T15:52:35;8.20;99.90
736;DHT22;352;48.626;9.238;2023-02-04T15:55:02;8.10;99.90
736;DHT22;352;48.626;9.238;2023-02-04T15:57:30;8.00;99.90
736;DHT22;352;48.626;9.238;2023-02-04T15:59:57;7.90;99.90
736;DHT22;352;48.626;9.238;2023-02-04T16:02:23;7.80;99.90
736;DHT22;352;48.626;9.238;2023-02-04T16:04:50;7.80;99.90
736;DHT22;352;48.626;9.238;2023-02-04T16:07:17;7.80;99.90
736;DHT22;352;48.626;9.238;2023-02-04T16:09:44;7.90;99.90
736;DHT22;352;48.626;9.238;2023-02-04T16:12:11;7.90;99.90
736;DHT22;352;48.626;9.238;2023-02-04T16:14:39;7.90;99.90
736;DHT22;352;48.626;9.238;2023-02-04T16:17:06;8.00;99.90
736;DHT22;352;48.626;9.238;2023-02-04T16:19:34;8.00;99.90
736;DHT22;352;48.626;9.238;2023-02-04T16:22:01;8.00;99.90
736;DHT22;352;48.626;9.238;2023-02-04T16:24:27;8.00;99.90
736;DHT22;352;48.626;9.238;2023-02-04T16:26:54;8.10;99.90
736;DHT22;352;48.626;9.238;2023-02-04T16:29:21;8.00;99.90
736;DHT22;352;48.626;9.238;2023-02-04T16:31:49;8.00;99.90
736;DHT22;352;48.626;9.238;2023-02-04T16:34:17;8.00;99.90
736;DHT22;352;48.626;9.238;2023-02-04T16:36:44;8.00;99.90
736;DHT22;352;48.626;9.238;2023-02-04T16:39:11;8.00;99.90
736;DHT22;352;48.626;9.238;2023-02-04T16:41:40;8.10;99.90
736;DHT22;352;48.626;9.238;2023-02-04T16:44:07;8.10;99.90
736;DHT22;352;48.626;9.238;2023-02-04T16:46:34;8.10;99.90
736;DHT22;352;48.626;9.238;2023-02-04T16:49:02;8.10;99.90
736;DHT22;352;48.626;9.238;2023-02-04T16:51:29;8.10;99.90
736;DHT22;352;48.626;9.238;2023-02-04T16:53:56;8.00;99.90
736;DHT22;352;48.626;9.238;2023-02-04T16:56:23;7.90;99.90
736;DHT22;352;48.626;9.238;2023-02-04T16:58:54;7.80;99.90